Time;durP1;ratioP1;P1;durP2;ratioP2;P2;SDS_P1;SDS_P2;PMS_P1;PMS_P2;Temp;Humidity;BMP_temperature;BMP_pressure;BME280_temperature;BME280_humidity;BME280_pressure;Samples;Min_cycle;Max_cycle;Signal;HPM_P1;HPM_P2
2024/01/06 00:01:01;;;;;;;41.35;17.08;;;4.20;99.90;;;;;;5071193;28;20736;-60
2024/01/06 00:03:26;;;;;;;40.60;17.77;;;4.20;99.90;;;;;;5076476;28;20509;-61
2024/01/06 00:05:52;;;;;;;38.55;17.60;;;4.10;99.90;;;;;;5073272;28;20040;-60
2024/01/06 00:08:18;;;;;;;36.72;17.13;;;4.10;99.90;;;;;;5074402;28;20028;-60
2024/01/06 00:10:44;;;;;;;40.15;17.25;;;4.20;99.90;;;;;;5074659;28;20032;-60
2024/01/06 00:13:10;;;;;;;45.28;17.33;;;4.20;99.90;;;;;;5072605;28;20028;-60
2024/01/06 00:15:36;;;;;;;45.85;18.17;;;4.30;99.90;;;;;;5076323;28;20032;-60
2024/01/06 00:18:02;;;;;;;36.28;15.77;;;4.30;99.90;;;;;;5072805;28;20663;-60
2024/01/06 00:20:28;;;;;;;37.45;16.55;;;4.20;99.90;;;;;;5074382;28;20158;-60
2024/01/06 00:22:55;;;;;;;40.40;17.60;;;4.30;99.90;;;;;;5074773;28;20116;-60
2024/01/06 00:25:21;;;;;;;42.60;17.50;;;4.30;99.90;;;;;;5072905;28;20036;-60
2024/01/06 00:27:46;;;;;;;45.97;19.30;;;4.20;99.90;;;;;;5076676;28;20043;-60
2024/01/06 00:30:12;;;;;;;42.15;17.77;;;4.20;99.90;;;;;;5072780;28;20626;-60
2024/01/06 00:32:38;;;;;;;41.47;17.58;;;4.20;99.90;;;;;;5075932;28;20057;-60
2024/01/06 00:35:04;;;;;;;39.08;16.48;;;4.30;99.90;;;;;;5073407;28;20515;-61
2024/01/06 00:37:30;;;;;;;43.47;17.23;;;4.40;99.90;;;;;;5074541;28;20529;-60
2024/01/06 00:39:56;;;;;;;45.25;17.98;;;4.40;99.90;;;;;;5073416;28;20063;-60
2024/01/06 00:42:21;;;;;;;41.95;17.75;;;4.40;99.90;;;;;;5075162;28;20048;-60
2024/01/06 00:44:47;;;;;;;41.50;16.50;;;4.30;99.90;;;;;;5073679;28;20088;-60
2024/01/06 00:47:13;;;;;;;35.60;16.55;;;4.30;99.90;;;;;;5072570;28;20500;-60
2024/01/06 00:49:39;;;;;;;44.88;18.05;;;4.30;99.90;;;;;;5075873;28;20060;-60
2024/01/06 00:52:05;;;;;;;44.13;17.67;;;4.10;99.90;;;;;;5072758;28;20075;-60
2024/01/06 00:54:30;;;;;;;44.55;18.42;;;3.90;99.90;;;;;;5076009;28;20119;-60
2024/01/06 00:56:56;;;;;;;46.72;17.70;;;3.90;99.90;;;;;;5073024;28;20045;-60
2024/01/06 00:59:22;;;;;;;43.25;18.02;;;3.80;99.90;;;;;;5073784;28;20032;-60
2024/01/06 01:01:48;;;;;;;40.38;17.15;;;3.80;99.90;;;;;;5074923;28;20058;-60
2024/01/06 01:04:13;;;;;;;46.13;17.92;;;3.80;99.90;;;;;;5072937;28;20101;-60
2024/01/06 01:06:39;;;;;;;45.17;17.08;;;3.80;99.90;;;;;;5076580;28;20395;-60
2024/01/06 01:09:05;;;;;;;43.50;17.48;;;3.80;99.90;;;;;;5073734;28;20036;-60
2024/01/06 01:11:31;;;;;;;47.65;19.13;;;3.90;99.90;;;;;;5073200;28;20459;-60
2024/01/06 01:13:56;;;;;;;42.85;18.10;;;4.00;99.90;;;;;;5075212;28;20036;-60
2024/01/06 01:16:22;;;;;;;49.75;19.95;;;4.00;99.90;;;;;;5076272;28;20069;-60
2024/01/06 01:18:48;;;;;;;47.92;18.35;;;4.10;99.90;;;;;;5072836;28;20107;-60
2024/01/06 01:21:14;;;;;;;48.88;19.33;;;4.00;99.90;;;;;;5073549;28;20043;-60
2024/01/06 01:23:40;;;;;;;44.42;19.63;;;4.10;99.90;;;;;;5071626;28;20053;-60
2024/01/06 01:26:06;;;;;;;46.33;19.27;;;4.00;99.90;;;;;;5077058;28;20810;-60
2024/01/06 01:28:32;;;;;;;46.78;17.98;;;3.90;99.90;;;;;;5079728;28;20567;-60
2024/01/06 01:30:58;;;;;;;50.97;19.42;;;3.90;99.90;;;;;;5075922;28;20036;-60
2024/01/06 01:33:24;;;;;;;44.50;18.48;;;4.00;99.90;;;;;;5078306;28;20029;-60
2024/01/06 01:35:49;;;;;;;43.38;18.88;;;4.00;99.90;;;;;;5076990;28;20055;-60
2024/01/06 01:38:15;;;;;;;51.85;19.25;;;4.00;99.90;;;;;;5076034;28;20040;-60
2024/01/06 01:40:41;;;;;;;51.47;18.77;;;3.80;99.90;;;;;;5078827;28;20081;-60
2024/01/06 01:43:18;;;;;;;41.95;18.40;;;3.80;99.90;;;;;;5075917;28;20705;-60
2024/01/06 01:45:48;;;;;;;44.80;19.45;;;3.90;99.90;;;;;;5079743;28;20028;-60
2024/01/06 01:48:14;;;;;;;54.45;20.02;;;3.90;99.90;;;;;;5077405;28;20033;-60
2024/01/06 01:50:40;;;;;;;44.33;17.35;;;3.90;99.90;;;;;;5076507;28;20042;-60
2024/01/06 01:53:06;;;;;;;41.58;17.80;;;3.80;99.90;;;;;;5076232;28;20563;-60
2024/01/06 01:55:32;;;;;;;43.05;17.88;;;3.80;99.90;;;;;;5079330;28;20030;-60
2024/01/06 01:57:57;;;;;;;46.90;18.38;;;3.90;99.90;;;;;;5075564;28;20032;-60
2024/01/06 02:00:23;;;;;;;46.78;18.17;;;3.90;99.90;;;;;;5076862;28;20533;-60
2024/01/06 02:02:49;;;;;;;45.47;18.67;;;3.80;99.90;;;;;;5076033;28;20028;-60
2024/01/06 02:05:15;;;;;;;37.95;16.17;;;3.60;99.90;;;;;;5076129;28;20036;-60
2024/01/06 02:07:41;;;;;;;45.17;18.73;;;3.70;99.90;;;;;;5078229;28;20032;-60
2024/01/06 02:10:07;;;;;;;46.55;18.05;;;3.60;99.90;;;;;;5075543;28;20051;-61
2024/01/06 02:12:33;;;;;;;46.60;18.60;;;3.70;99.90;;;;;;5078318;28;20032;-60
2024/01/06 02:14:58;;;;;;;48.67;18.75;;;3.80;99.90;;;;;;5077863;28;20413;-60
2024/01/06 02:17:25;;;;;;;45.45;18.75;;;3.80;99.90;;;;;;5079623;28;20742;-60
2024/01/06 02:19:51;;;;;;;45.78;17.65;;;3.90;99.90;;;;;;5077132;28;20035;-60
2024/01/06 02:22:17;;;;;;;44.05;17.55;;;3.90;99.90;;;;;;5075099;28;20559;-60
2024/01/06 02:24:43;;;;;;;53.10;18.70;;;3.80;99.90;;;;;;5078466;28;20127;-60
2024/01/06 02:27:08;;;;;;;44.92;17.77;;;3.80;99.90;;;;;;5076151;28;20033;-60
2024/01/06 02:29:34;;;;;;;48.20;18.65;;;3.80;99.90;;;;;;5075770;28;20082;-61
2024/01/06 02:32:00;;;;;;;43.22;17.65;;;3.70;99.90;;;;;;5075980;28;20146;-60
2024/01/06 02:34:26;;;;;;;50.45;18.45;;;3.60;99.90;;;;;;5078500;28;20047;-60
2024/01/06 02:36:51;;;;;;;42.80;18.17;;;3.50;99.90;;;;;;5074659;28;20039;-60
2024/01/06 02:39:17;;;;;;;44.53;18.63;;;3.60;99.90;;;;;;5076383;28;20481;-60
2024/01/06 02:41:43;;;;;;;43.15;19.13;;;3.50;99.90;;;;;;5076583;28;20036;-60
2024/01/06 02:44:09;;;;;;;45.70;16.90;;;3.50;99.90;;;;;;5074870;28;20446;-60
2024/01/06 02:46:34;;;;;;;46.13;17.75;;;3.60;99.90;;;;;;5075355;28;20640;-60
2024/01/06 02:49:00;;;;;;;42.28;18.20;;;3.70;99.90;;;;;;5076798;28;20117;-60
2024/01/06 02:51:26;;;;;;;46.45;18.27;;;3.70;99.90;;;;;;5076545;28;20127;-60
2024/01/06 02:53:51;;;;;;;42.40;17.77;;;3.80;99.90;;;;;;5075954;28;20443;-60
2024/01/06 02:56:17;;;;;;;44.60;17.60;;;3.80;99.90;;;;;;5074964;28;20028;-60
2024/01/06 02:58:43;;;;;;;45.05;17.20;;;3.80;99.90;;;;;;5077609;28;20036;-60
2024/01/06 03:01:11;;;;;;;41.75;16.00;;;3.80;99.90;;;;;;5074241;28;20111;-60
2024/01/06 03:03:36;;;;;;;51.03;17.90;;;3.60;99.90;;;;;;5076881;28;20043;-60
2024/01/06 03:06:02;;;;;;;38.20;14.13;;;3.50;99.90;;;;;;5075019;28;20050;-60
2024/01/06 03:08:28;;;;;;;39.40;15.00;;;3.40;99.90;;;;;;5075232;28;20032;-60
2024/01/06 03:10:54;;;;;;;41.38;15.52;;;3.40;99.90;;;;;;5077537;28;20040;-60
2024/01/06 03:13:20;;;;;;;41.80;16.17;;;3.30;99.90;;;;;;5076754;28;20027;-60
2024/01/06 03:15:45;;;;;;;48.15;17.05;;;3.50;99.90;;;;;;5074451;28;20032;-60
2024/01/06 03:18:11;;;;;;;46.20;17.80;;;3.40;99.90;;;;;;5073553;28;20035;-60
2024/01/06 03:20:37;;;;;;;38.08;16.73;;;3.40;99.90;;;;;;5076653;28;20028;-60
2024/01/06 03:23:03;;;;;;;44.08;16.50;;;3.50;99.90;;;;;;5073910;28;20551;-60
2024/01/06 03:25:28;;;;;;;42.28;17.02;;;3.50;99.90;;;;;;5077695;28;20863;-60
2024/01/06 03:27:54;;;;;;;45.22;16.67;;;3.40;99.90;;;;;;5073969;28;20043;-60
2024/01/06 03:30:20;;;;;;;44.00;17.10;;;3.30;99.90;;;;;;5071732;28;20503;-60
2024/01/06 03:32:46;;;;;;;43.03;16.90;;;3.40;99.90;;;;;;5075802;28;20035;-60
2024/01/06 03:35:11;;;;;;;36.15;14.38;;;3.50;99.90;;;;;;5073875;28;20032;-60
2024/01/06 03:37:37;;;;;;;41.58;16.27;;;3.40;99.90;;;;;;5077418;28;20032;-60
2024/01/06 03:40:03;;;;;;;39.05;15.63;;;3.40;99.90;;;;;;5074578;28;20029;-60
2024/01/06 03:42:29;;;;;;;40.40;16.25;;;3.30;99.90;;;;;;5074501;28;20021;-60
2024/01/06 03:44:55;;;;;;;39.22;15.18;;;3.20;99.90;;;;;;5075536;28;20020;-60
2024/01/06 03:47:20;;;;;;;41.20;15.65;;;3.20;99.90;;;;;;5072399;28;20020;-60
2024/01/06 03:49:46;;;;;;;32.80;14.70;;;3.20;99.90;;;;;;5070370;28;20529;-60
2024/01/06 03:52:13;;;;;;;39.15;15.48;;;3.30;99.90;;;;;;5070997;28;20036;-60
2024/01/06 03:54:39;;;;;;;41.17;17.10;;;3.30;99.90;;;;;;5074458;28;20046;-60
2024/01/06 03:57:05;;;;;;;41.95;17.17;;;3.40;99.90;;;;;;5073830;28;20478;-60
2024/01/06 03:59:31;;;;;;;43.08;16.42;;;3.30;99.90;;;;;;5076811;28;20782;-60
2024/01/06 04:01:56;;;;;;;45.38;16.75;;;3.40;99.90;;;;;;5072895;28;20047;-60
2024/01/06 04:04:22;;;;;;;33.55;14.35;;;3.50;99.90;;;;;;5075791;28;20032;-60
2024/01/06 04:06:48;;;;;;;32.08;14.73;;;3.50;99.90;;;;;;5074240;28;20149;-60
2024/01/06 04:09:14;;;;;;;42.90;15.10;;;3.60;99.90;;;;;;5073898;28;20036;-60
2024/01/06 04:11:39;;;;;;;36.20;14.90;;;3.60;99.90;;;;;;5076037;28;20043;-60
2024/01/06 04:14:05;;;;;;;35.85;14.30;;;3.70;99.90;;;;;;5069999;28;20044;-61
2024/01/06 04:16:31;;;;;;;33.92;14.45;;;3.60;99.90;;;;;;5075597;28;20139;-60
2024/01/06 04:18:57;;;;;;;31.83;15.48;;;3.60;99.90;;;;;;5073850;28;20090;-60
2024/01/06 04:21:22;;;;;;;37.80;14.23;;;3.60;99.90;;;;;;5073895;28;20025;-60
2024/01/06 04:23:48;;;;;;;41.70;15.60;;;3.60;99.90;;;;;;5076003;28;20028;-60
2024/01/06 04:26:14;;;;;;;35.75;15.50;;;3.60;99.90;;;;;;5073230;28;20028;-60
2024/01/06 04:28:40;;;;;;;34.05;14.50;;;3.50;99.90;;;;;;5076960;28;20028;-60
2024/01/06 04:31:05;;;;;;;35.67;14.18;;;3.60;99.90;;;;;;5073655;28;20037;-60
2024/01/06 04:33:31;;;;;;;35.15;15.20;;;3.60;99.90;;;;;;5073898;28;20408;-60
2024/01/06 04:35:58;;;;;;;36.08;15.40;;;3.60;99.90;;;;;;5072218;28;20044;-60
2024/01/06 04:38:24;;;;;;;41.60;15.65;;;3.50;99.90;;;;;;5076152;28;20036;-60
2024/01/06 04:40:50;;;;;;;44.30;15.23;;;3.50;99.90;;;;;;5072742;28;20043;-60
2024/01/06 04:43:16;;;;;;;41.55;14.90;;;3.50;99.90;;;;;;5074042;28;20036;-60
2024/01/06 04:45:41;;;;;;;39.72;15.50;;;3.50;99.90;;;;;;5074921;28;20543;-60
2024/01/06 04:48:07;;;;;;;32.90;14.15;;;3.40;99.90;;;;;;5073044;28;20621;-60
2024/01/06 04:50:33;;;;;;;40.00;15.15;;;3.40;99.90;;;;;;5076371;28;20107;-60
2024/01/06 04:52:59;;;;;;;38.60;15.30;;;3.50;99.90;;;;;;5072556;28;20170;-60
2024/01/06 04:55:24;;;;;;;36.78;15.05;;;3.60;99.90;;;;;;5072500;28;20135;-60
2024/01/06 04:57:50;;;;;;;38.13;15.95;;;3.60;99.90;;;;;;5074389;28;20037;-60
2024/01/06 05:00:16;;;;;;;36.92;15.13;;;3.60;99.90;;;;;;5075688;28;20016;-60
2024/01/06 05:02:43;;;;;;;43.13;16.25;;;3.60;99.90;;;;;;5073865;28;20535;-60
2024/01/06 05:05:08;;;;;;;38.95;15.75;;;3.60;99.90;;;;;;5075191;28;20033;-60
2024/01/06 05:07:34;;;;;;;35.83;15.15;;;3.50;99.90;;;;;;5064172;28;20038;-60
2024/01/06 05:10:00;;;;;;;39.95;15.38;;;3.40;99.90;;;;;;5067974;28;20036;-61
2024/01/06 05:12:26;;;;;;;37.97;16.05;;;3.40;99.90;;;;;;5069623;28;20036;-60
2024/01/06 05:14:51;;;;;;;38.85;15.25;;;3.50;99.90;;;;;;5072748;28;20131;-60
2024/01/06 05:17:17;;;;;;;34.35;14.65;;;3.50;99.90;;;;;;5065164;28;20028;-60
2024/01/06 05:19:43;;;;;;;45.60;15.77;;;3.60;99.90;;;;;;5074623;28;20024;-60
2024/01/06 05:22:08;;;;;;;42.15;15.52;;;3.60;99.90;;;;;;5076667;28;21000;-60
2024/01/06 05:24:34;;;;;;;35.10;14.32;;;3.60;99.90;;;;;;5079281;28;20088;-60
2024/01/06 05:27:00;;;;;;;36.53;14.10;;;3.70;99.90;;;;;;5075976;28;20085;-60
2024/01/06 05:29:26;;;;;;;36.13;14.77;;;3.80;99.90;;;;;;5079060;28;20036;-60
2024/01/06 05:31:52;;;;;;;42.83;16.05;;;3.80;99.90;;;;;;5079352;28;20081;-60
2024/01/06 05:34:18;;;;;;;37.38;15.02;;;3.70;99.90;;;;;;5077032;28;20418;-60
2024/01/06 05:36:43;;;;;;;38.90;15.48;;;3.60;99.90;;;;;;5078503;28;20104;-60
2024/01/06 05:39:10;;;;;;;38.08;15.05;;;3.70;99.90;;;;;;5076099;28;20127;-60
2024/01/06 05:41:39;;;;;;;39.25;15.70;;;3.80;99.90;;;;;;5077966;28;20792;-60
2024/01/06 05:44:06;;;;;;;40.95;16.40;;;3.80;99.90;;;;;;5074935;28;20040;-60
2024/01/06 05:46:32;;;;;;;43.38;15.10;;;3.80;99.90;;;;;;5080354;28;20119;-60
2024/01/06 05:48:57;;;;;;;40.70;16.23;;;3.70;99.90;;;;;;5076801;28;20166;-60
2024/01/06 05:51:23;;;;;;;44.30;15.30;;;3.70;99.90;;;;;;5075909;28;20024;-60
2024/01/06 05:53:49;;;;;;;39.17;15.25;;;3.60;99.90;;;;;;5079066;28;20832;-60
2024/01/06 05:56:25;;;;;;;42.63;16.10;;;3.60;99.90;;;;;;5077787;28;20038;-60
2024/01/06 05:58:52;;;;;;;;;;;3.70;99.90;;;;;;5076474;28;20036;-60
2024/01/06 06:01:17;;;;;;;;;;;3.60;99.90;;;;;;5077337;28;19919;-60
2024/01/06 06:03:43;;;;;;;42.03;15.27;;;3.50;99.90;;;;;;5073196;28;19912;-60
2024/01/06 06:06:09;;;;;;;40.20;15.15;;;3.50;99.90;;;;;;5075136;28;20032;-60
2024/01/06 06:08:35;;;;;;;38.45;15.07;;;3.50;99.90;;;;;;5079034;28;20483;-60
2024/01/06 06:11:01;;;;;;;44.55;15.30;;;3.50;99.90;;;;;;5074966;28;20044;-60
2024/01/06 06:13:29;;;;;;;40.38;14.48;;;3.60;99.90;;;;;;5077331;28;20036;-60
2024/01/06 06:15:55;;;;;;;38.55;16.45;;;3.60;99.90;;;;;;5075852;28;20480;-60
2024/01/06 06:18:22;;;;;;;46.05;16.63;;;3.70;99.90;;;;;;5075521;28;20062;-60
2024/01/06 06:20:47;;;;;;;41.63;16.05;;;3.80;99.90;;;;;;5077945;28;20047;-60
2024/01/06 06:23:13;;;;;;;42.25;15.20;;;3.80;99.90;;;;;;5077270;28;20480;-60
2024/01/06 06:25:39;;;;;;;42.15;15.63;;;3.70;99.90;;;;;;5075801;28;20040;-60
2024/01/06 06:28:06;;;;;;;38.40;15.38;;;3.70;99.90;;;;;;5075649;28;20108;-60
2024/01/06 06:30:32;;;;;;;34.95;14.90;;;3.70;99.90;;;;;;5075603;28;20393;-60
2024/01/06 06:32:58;;;;;;;41.60;16.20;;;3.70;99.90;;;;;;5075021;28;20119;-60
2024/01/06 06:35:24;;;;;;;38.42;15.23;;;3.70;99.90;;;;;;5076628;28;20688;-60
2024/01/06 06:37:50;;;;;;;48.72;17.15;;;3.80;99.90;;;;;;5078478;28;20787;-59
2024/01/06 06:40:16;;;;;;;48.78;16.35;;;3.70;99.90;;;;;;5075738;28;20035;-59
2024/01/06 06:42:41;;;;;;;34.60;15.55;;;3.60;99.90;;;;;;5076989;28;20028;-60
2024/01/06 06:45:08;;;;;;;39.65;15.85;;;3.60;99.90;;;;;;5074969;28;20549;-60
2024/01/06 06:47:34;;;;;;;42.83;16.13;;;3.60;99.90;;;;;;5078386;28;20032;-60
2024/01/06 06:50:00;;;;;;;41.17;16.25;;;3.60;99.90;;;;;;5072150;28;20039;-60
2024/01/06 06:52:25;;;;;;;41.47;16.52;;;3.50;99.90;;;;;;5075859;28;20627;-60
2024/01/06 06:54:52;;;;;;;44.00;17.75;;;3.60;99.90;;;;;;5076131;28;20046;-60
2024/01/06 06:57:18;;;;;;;46.40;16.73;;;3.70;99.90;;;;;;5075016;28;20036;-60
2024/01/06 06:59:44;;;;;;;49.50;17.92;;;3.80;99.90;;;;;;5071857;28;20058;-61
2024/01/06 07:02:10;;;;;;;50.17;17.00;;;3.70;99.90;;;;;;5075557;28;20070;-60
2024/01/06 07:04:36;;;;;;;45.13;17.50;;;3.70;99.90;;;;;;5075037;28;20550;-60
2024/01/06 07:07:02;;;;;;;49.22;17.92;;;3.70;99.90;;;;;;5075069;28;20089;-60
2024/01/06 07:09:28;;;;;;;54.13;17.90;;;3.70;99.90;;;;;;5077872;28;20127;-60
2024/01/06 07:11:53;;;;;;;44.88;17.73;;;3.60;99.90;;;;;;5074371;28;20151;-60
2024/01/06 07:14:19;;;;;;;48.53;17.33;;;3.50;99.90;;;;;;5077914;28;20083;-60
2024/01/06 07:16:45;;;;;;;42.60;17.88;;;3.50;99.90;;;;;;5074522;28;20061;-60
2024/01/06 07:19:11;;;;;;;44.03;18.63;;;3.50;99.90;;;;;;5075120;28;20037;-60
2024/01/06 07:21:37;;;;;;;44.60;16.73;;;3.60;99.90;;;;;;5076409;28;20028;-60
2024/01/06 07:24:03;;;;;;;49.13;17.85;;;3.60;99.90;;;;;;5073929;28;20127;-60
2024/01/06 07:26:29;;;;;;;51.40;19.05;;;3.50;99.90;;;;;;5076994;28;20433;-60
2024/01/06 07:28:55;;;;;;;45.30;17.48;;;3.50;99.90;;;;;;5074461;28;20032;-61
2024/01/06 07:31:20;;;;;;;44.58;16.73;;;3.50;99.90;;;;;;5074481;28;20029;-60
2024/01/06 07:33:46;;;;;;;46.97;19.20;;;3.30;99.90;;;;;;5076305;28;20043;-60
2024/01/06 07:36:12;;;;;;;47.95;19.25;;;3.40;99.90;;;;;;5076028;28;20546;-60
2024/01/06 07:38:38;;;;;;;47.05;18.25;;;3.30;99.90;;;;;;5077415;28;20028;-60
2024/01/06 07:41:06;;;;;;;57.05;19.45;;;3.20;99.90;;;;;;5074256;28;20127;-60
2024/01/06 07:43:32;;;;;;;52.42;18.23;;;3.10;99.90;;;;;;5072541;28;20392;-60
2024/01/06 07:45:59;;;;;;;52.75;19.60;;;3.00;99.90;;;;;;5052988;28;20043;-60
2024/01/06 07:48:25;;;;;;;45.15;17.83;;;3.10;99.90;;;;;;5076552;28;20131;-60
2024/01/06 07:50:50;;;;;;;55.75;20.35;;;3.10;99.90;;;;;;5072928;28;20036;-60
2024/01/06 07:53:16;;;;;;;48.63;17.98;;;3.30;99.90;;;;;;5073972;28;20059;-61
2024/01/06 07:55:42;;;;;;;49.00;19.27;;;3.30;99.90;;;;;;5073512;28;20028;-61
2024/01/06 07:58:08;;;;;;;45.70;18.77;;;3.30;99.90;;;;;;5068297;28;20060;-60
2024/01/06 08:00:34;;;;;;;49.42;17.33;;;3.40;99.90;;;;;;5075575;28;20027;-60
2024/01/06 08:03:00;;;;;;;52.53;18.85;;;3.30;99.90;;;;;;5072155;28;20024;-60
2024/01/06 08:05:26;;;;;;;47.90;17.85;;;3.30;99.90;;;;;;5074500;28;20025;-60
2024/01/06 08:07:52;;;;;;;47.08;18.73;;;3.20;99.90;;;;;;5069908;28;20028;-61
2024/01/06 08:10:18;;;;;;;51.22;19.30;;;3.30;99.90;;;;;;5070164;28;20039;-60
2024/01/06 08:12:43;;;;;;;49.95;20.05;;;3.20;99.90;;;;;;5075940;28;20032;-60
2024/01/06 08:15:09;;;;;;;48.30;18.58;;;3.20;99.90;;;;;;5075804;28;20044;-60
2024/01/06 08:17:36;;;;;;;56.88;19.75;;;3.20;99.90;;;;;;5075530;28;20035;-61
2024/01/06 08:20:03;;;;;;;48.08;17.45;;;3.20;99.90;;;;;;5073381;28;20036;-61
2024/01/06 08:22:29;;;;;;;43.97;17.83;;;3.10;99.90;;;;;;5073135;28;20040;-61
2024/01/06 08:24:54;;;;;;;50.40;17.65;;;3.20;99.90;;;;;;5075104;28;20063;-61
2024/01/06 08:27:21;;;;;;;43.03;16.88;;;3.20;99.90;;;;;;5075646;28;20038;-60
2024/01/06 08:29:47;;;;;;;45.15;16.95;;;3.00;99.90;;;;;;5071646;28;20488;-60
2024/01/06 08:32:14;;;;;;;46.80;16.55;;;2.90;99.90;;;;;;5073062;28;20048;-61
2024/01/06 08:34:40;;;;;;;41.28;17.25;;;3.00;99.90;;;;;;5078779;28;20036;-61
2024/01/06 08:37:06;;;;;;;44.60;17.42;;;3.10;99.90;;;;;;5076531;28;20040;-61
2024/01/06 08:39:32;;;;;;;46.50;17.63;;;3.20;99.90;;;;;;5080372;28;20035;-61
2024/01/06 08:41:58;;;;;;;51.92;17.40;;;3.30;99.90;;;;;;5073174;28;20028;-61
2024/01/06 08:44:24;;;;;;;48.78;18.23;;;3.40;99.90;;;;;;5078315;28;20029;-60
2024/01/06 08:46:50;;;;;;;46.65;17.00;;;3.30;99.90;;;;;;5076083;28;20035;-60
2024/01/06 08:49:16;;;;;;;49.00;16.45;;;3.50;99.90;;;;;;5076129;28;20048;-61
2024/01/06 08:51:41;;;;;;;48.40;17.75;;;3.60;99.90;;;;;;5078719;28;20078;-60
2024/01/06 08:54:07;;;;;;;46.53;16.92;;;3.70;99.90;;;;;;5077839;28;20425;-60
2024/01/06 08:56:34;;;;;;;50.58;17.73;;;3.70;99.90;;;;;;5078523;28;20028;-61
2024/01/06 08:58:59;;;;;;;44.13;15.95;;;3.70;99.90;;;;;;5076473;28;20034;-60
2024/01/06 09:01:25;;;;;;;50.83;17.90;;;3.80;99.90;;;;;;5072713;28;20032;-61
2024/01/06 09:03:51;;;;;;;51.08;18.67;;;3.70;99.90;;;;;;5079250;28;20032;-60
2024/01/06 09:06:17;;;;;;;49.58;18.25;;;3.70;99.90;;;;;;5078369;28;20025;-60
2024/01/06 09:08:43;;;;;;;43.83;17.70;;;3.70;99.90;;;;;;5076767;28;20058;-61
2024/01/06 09:11:08;;;;;;;43.35;15.52;;;3.60;99.90;;;;;;5076506;28;20040;-62
2024/01/06 09:13:34;;;;;;;52.72;19.17;;;3.70;99.90;;;;;;5077257;28;20074;-60
2024/01/06 09:16:00;;;;;;;51.05;17.63;;;3.70;99.90;;;;;;5076090;28;20054;-61
2024/01/06 09:18:27;;;;;;;43.63;16.73;;;3.80;99.90;;;;;;5079057;28;20047;-60
2024/01/06 09:20:53;;;;;;;44.58;15.98;;;3.70;99.90;;;;;;5075498;28;20032;-61
2024/01/06 09:23:20;;;;;;;40.53;16.35;;;3.70;99.90;;;;;;5076947;28;20025;-60
2024/01/06 09:25:49;;;;;;;40.92;15.55;;;3.60;99.90;;;;;;5076533;28;20598;-60
2024/01/06 09:28:15;;;;;;;47.70;16.67;;;3.50;99.90;;;;;;5075372;28;20065;-60
2024/01/06 09:30:41;;;;;;;45.15;16.40;;;3.30;99.90;;;;;;5072965;28;20027;-60
2024/01/06 09:33:08;;;;;;;44.67;16.58;;;3.30;99.90;;;;;;5075849;28;20041;-60
2024/01/06 09:35:34;;;;;;;48.10;16.40;;;3.20;99.90;;;;;;5076636;28;20035;-61
2024/01/06 09:38:00;;;;;;;40.45;16.65;;;3.20;99.90;;;;;;5076021;28;20044;-60
2024/01/06 09:40:26;;;;;;;46.70;17.10;;;3.20;99.90;;;;;;5076066;28;20473;-60
2024/01/06 09:42:53;;;;;;;47.85;18.20;;;3.10;99.90;;;;;;5077610;28;20110;-61
2024/01/06 09:45:20;;;;;;;40.33;15.70;;;3.00;99.90;;;;;;5077180;28;20065;-60
2024/01/06 09:47:50;;;;;;;48.67;17.00;;;3.10;99.90;;;;;;5075330;28;20036;-60
2024/01/06 09:50:20;;;;;;;43.05;15.50;;;3.10;99.90;;;;;;5075654;28;20032;-60
2024/01/06 09:52:54;;;;;;;49.63;17.75;;;3.10;99.90;;;;;;5077321;28;20048;-60
2024/01/06 09:55:29;;;;;;;52.30;17.23;;;3.00;99.90;;;;;;5076304;28;20040;-60
2024/01/06 09:57:54;;;;;;;42.95;17.27;;;2.90;99.90;;;;;;5076531;28;20377;-60
2024/01/06 10:00:21;;;;;;;46.72;18.98;;;2.80;99.90;;;;;;5075565;28;20032;-61
2024/01/06 10:02:48;;;;;;;59.53;18.85;;;2.80;99.90;;;;;;5078491;28;20039;-61
2024/01/06 10:05:16;;;;;;;52.58;17.67;;;3.00;99.90;;;;;;5076592;28;20029;-60
2024/01/06 10:07:43;;;;;;;44.10;17.08;;;3.00;99.90;;;;;;5075891;28;20054;-60
2024/01/06 10:10:10;;;;;;;46.67;18.00;;;3.10;99.90;;;;;;5075625;28;20037;-61
2024/01/06 10:12:40;;;;;;;51.53;18.42;;;3.10;99.90;;;;;;5077013;28;20028;-60
2024/01/06 10:15:07;;;;;;;49.45;17.20;;;3.10;99.90;;;;;;5071994;28;20044;-61
2024/01/06 10:17:39;;;;;;;46.97;17.42;;;3.10;99.90;;;;;;5078448;28;20032;-60
2024/01/06 10:20:10;;;;;;;45.40;16.25;;;3.00;99.90;;;;;;5074586;28;20043;-60
2024/01/06 10:22:37;;;;;;;54.60;18.83;;;3.00;99.90;;;;;;5077833;28;20070;-61
2024/01/06 10:25:06;;;;;;;48.78;16.67;;;3.00;99.90;;;;;;5073265;28;20032;-60
2024/01/06 10:27:43;;;;;;;45.95;16.73;;;3.00;99.90;;;;;;5075224;28;20497;-61
2024/01/06 10:30:09;;;;;;;45.85;16.52;;;3.00;99.90;;;;;;5073288;28;20037;-61
2024/01/06 10:32:36;;;;;;;50.83;17.15;;;3.10;99.90;;;;;;5074943;28;20028;-60
2024/01/06 10:35:03;;;;;;;44.22;17.38;;;3.20;99.90;;;;;;5075918;28;20032;-60
2024/01/06 10:37:32;;;;;;;46.70;17.00;;;3.10;99.90;;;;;;5078143;28;20038;-61
2024/01/06 10:40:06;;;;;;;44.65;17.48;;;3.20;99.90;;;;;;5071761;28;20527;-61
2024/01/06 10:42:32;;;;;;;51.33;18.80;;;3.20;99.90;;;;;;5076867;28;20126;-61
2024/01/06 10:45:00;;;;;;;42.70;15.95;;;3.20;99.90;;;;;;5076835;28;20039;-60
2024/01/06 10:47:29;;;;;;;43.53;16.85;;;3.20;99.90;;;;;;5074796;28;20032;-61
2024/01/06 10:49:58;;;;;;;45.72;16.98;;;3.20;99.90;;;;;;5076568;28;20040;-61
2024/01/06 10:52:26;;;;;;;44.15;15.52;;;3.20;99.90;;;;;;5074852;28;20817;-61
2024/01/06 10:54:54;;;;;;;40.92;16.20;;;2.90;99.90;;;;;;5076962;28;20166;-60
2024/01/06 10:57:21;;;;;;;40.33;17.08;;;2.80;99.90;;;;;;5073801;28;20028;-61
2024/01/06 10:59:51;;;;;;;45.40;16.85;;;2.70;99.90;;;;;;5074276;28;20036;-60
2024/01/06 11:02:17;;;;;;;50.55;18.45;;;2.70;99.90;;;;;;5074690;28;20106;-60
2024/01/06 11:04:45;;;;;;;48.90;17.42;;;2.60;99.90;;;;;;5075016;28;20468;-60
2024/01/06 11:07:13;;;;;;;43.28;16.02;;;2.70;99.90;;;;;;5074113;28;20041;-60
2024/01/06 11:09:50;;;;;;;41.45;17.00;;;2.80;99.90;;;;;;5074703;28;20078;-60
2024/01/06 11:12:17;;;;;;;41.88;16.25;;;2.90;99.90;;;;;;5071642;28;20036;-60
2024/01/06 11:14:43;;;;;;;44.70;15.95;;;2.80;99.90;;;;;;5077019;28;20043;-60
2024/01/06 11:17:10;;;;;;;37.65;15.25;;;2.70;99.90;;;;;;5075199;28;20036;-60
2024/01/06 11:19:42;;;;;;;43.50;16.90;;;2.80;99.90;;;;;;5074538;28;20071;-60
2024/01/06 11:22:24;;;;;;;41.22;15.07;;;2.70;99.90;;;;;;5073972;28;20088;-60
2024/01/06 11:24:52;;;;;;;45.13;17.20;;;2.80;99.90;;;;;;5074782;28;20515;-60
2024/01/06 11:27:28;;;;;;;48.72;16.60;;;3.00;99.90;;;;;;5074126;28;20060;-61
2024/01/06 11:29:55;;;;;;;44.53;16.95;;;3.10;99.90;;;;;;5074448;28;20610;-60
2024/01/06 11:32:29;;;;;;;38.70;15.85;;;3.20;99.90;;;;;;5073360;28;20036;-60
2024/01/06 11:35:04;;;;;;;35.30;15.90;;;3.20;99.90;;;;;;5074767;28;20167;-60
2024/01/06 11:37:41;;;;;;;37.60;16.17;;;3.20;99.90;;;;;;5072617;28;20042;-60
2024/01/06 11:40:20;;;;;;;38.50;15.68;;;3.00;99.90;;;;;;5073103;28;20032;-60
2024/01/06 11:42:56;;;;;;;39.00;16.75;;;3.00;99.90;;;;;;5072729;28;20046;-60
2024/01/06 11:45:24;;;;;;;43.85;16.75;;;2.90;99.90;;;;;;5073820;28;20662;-60
2024/01/06 11:47:54;;;;;;;37.30;15.32;;;2.70;99.90;;;;;;5074362;28;20053;-60
2024/01/06 11:50:20;;;;;;;38.53;16.00;;;2.70;99.90;;;;;;5073357;28;20065;-59
2024/01/06 11:52:46;;;;;;;37.70;15.48;;;2.60;99.90;;;;;;5073908;28;20396;-60
2024/01/06 11:55:13;;;;;;;43.42;16.23;;;2.70;99.90;;;;;;5074121;28;20032;-60
2024/01/06 11:57:38;;;;;;;36.38;16.67;;;2.80;99.90;;;;;;5073597;28;20032;-60
2024/01/06 12:00:05;;;;;;;37.00;15.10;;;2.90;99.90;;;;;;5074475;28;20042;-60
2024/01/06 12:02:32;;;;;;;38.53;16.67;;;3.00;99.90;;;;;;5071124;28;20977;-60
2024/01/06 12:04:58;;;;;;;40.90;17.17;;;3.20;99.90;;;;;;5075765;28;20061;-60
2024/01/06 12:07:24;;;;;;;35.38;14.98;;;3.30;99.90;;;;;;5073578;28;20484;-60
2024/01/06 12:10:00;;;;;;;34.22;15.98;;;3.20;99.90;;;;;;5074302;28;20055;-60
2024/01/06 12:12:25;;;;;;;43.10;16.13;;;3.30;99.90;;;;;;5058208;28;20028;-60
2024/01/06 12:14:51;;;;;;;41.92;16.38;;;3.20;99.90;;;;;;5074040;28;20134;-60
2024/01/06 12:17:20;;;;;;;33.22;14.57;;;3.00;99.90;;;;;;5073063;28;20028;-60
2024/01/06 12:19:47;;;;;;;38.58;15.45;;;2.80;99.90;;;;;;5066104;28;20132;-60
2024/01/06 12:22:15;;;;;;;36.35;15.25;;;2.90;99.90;;;;;;5069805;28;20519;-60
2024/01/06 12:24:42;;;;;;;35.65;15.20;;;2.90;99.90;;;;;;5071014;28;20489;-60
2024/01/06 12:27:11;;;;;;;31.65;15.07;;;2.90;99.90;;;;;;5073069;28;20062;-60
2024/01/06 12:29:41;;;;;;;31.92;15.85;;;3.00;99.90;;;;;;5075438;28;20503;-60
2024/01/06 12:32:08;;;;;;;33.88;15.27;;;3.10;99.90;;;;;;5072344;28;20044;-60
2024/01/06 12:34:35;;;;;;;37.30;15.18;;;3.10;99.90;;;;;;5075990;28;20683;-60